TimeEDT,TemperatureF,Dew PointF,Humidity,Sea Level PressureIn,VisibilityMPH,Wind Direction,Wind SpeedMPH,Gust SpeedMPH,PrecipitationIn,Events,Conditions,WindDirDegrees,DateUTC
12:53 AM,28.9,19.9,69,30.04,10.0,WNW,5.8,-,N/A,,Clear,300,2013-03-23 04:53:00
1:53 AM,27.0,19.0,72,30.03,10.0,NW,5.8,-,N/A,,Clear,310,2013-03-23 05:53:00
2:53 AM,26.1,19.0,75,30.04,10.0,NW,5.8,-,N/A,,Clear,320,2013-03-23 06:53:00
3:53 AM,25.0,18.0,75,30.03,10.0,Calm,Calm,-,N/A,,Clear,0,2013-03-23 07:53:00
4:53 AM,25.0,19.0,78,30.03,10.0,WNW,4.6,-,N/A,,Clear,290,2013-03-23 08:53:00
5:53 AM,25.0,19.0,78,30.03,10.0,NW,4.6,-,N/A,,Clear,310,2013-03-23 09:53:00
6:53 AM,24.1,18.0,77,30.05,9.0,NW,3.5,-,N/A,,Clear,310,2013-03-23 10:53:00
7:53 AM,23.0,18.0,81,30.07,6.0,WNW,3.5,-,N/A,,Haze,300,2013-03-23 11:53:00
8:53 AM,28.9,21.9,75,30.08,7.0,NNW,4.6,-,N/A,,Clear,340,2013-03-23 12:53:00
9:53 AM,34.0,23.0,64,30.09,10.0,North,8.1,-,N/A,,Clear,350,2013-03-23 13:53:00
10:15 AM,33.8,21.2,60,30.08,10.0,NNW,6.9,-,N/A,,Mostly Cloudy,340,2013-03-23 14:15:00
10:53 AM,35.1,21.0,57,30.10,10.0,NNW,9.2,-,N/A,,Mostly Cloudy,340,2013-03-23 14:53:00
11:53 AM,35.1,19.9,54,30.11,10.0,Variable,4.6,-,N/A,,Overcast,0,2013-03-23 15:53:00
12:53 PM,37.9,19.9,48,30.11,10.0,NNW,5.8,-,N/A,,Overcast,340,2013-03-23 16:53:00
1:53 PM,37.9,21.0,51,30.11,10.0,NNW,6.9,-,N/A,,Mostly Cloudy,340,2013-03-23 17:53:00
2:53 PM,37.9,21.9,53,30.09,10.0,North,9.2,-,N/A,,Overcast,350,2013-03-23 18:53:00
3:53 PM,39.9,21.9,49,30.08,10.0,Variable,4.6,-,N/A,,Mostly Cloudy,0,2013-03-23 19:53:00
4:53 PM,41.0,21.0,45,30.08,10.0,Variable,3.5,-,N/A,,Partly Cloudy,0,2013-03-23 20:53:00
5:53 PM,41.0,21.0,45,30.08,10.0,Variable,4.6,-,N/A,,Clear,0,2013-03-23 21:53:00
6:53 PM,39.9,21.0,47,30.07,10.0,NNW,5.8,-,N/A,,Clear,330,2013-03-23 22:53:00
7:53 PM,35.1,21.0,57,30.06,10.0,NNW,6.9,-,N/A,,Clear,340,2013-03-23 23:53:00
8:53 PM,30.9,19.9,64,30.09,10.0,NW,6.9,-,N/A,,Clear,320,2013-03-24 00:53:00
9:53 PM,33.1,21.9,64,30.09,10.0,North,4.6,-,N/A,,Overcast,10,2013-03-24 01:53:00
10:53 PM,33.1,23.0,66,30.08,10.0,NNE,5.8,-,N/A,,Overcast,20,2013-03-24 02:53:00
11:34 PM,33.8,23.0,65,30.05,10.0,NNE,4.6,-,N/A,,Mostly Cloudy,20,2013-03-24 03:34:00
11:50 PM,32.0,21.2,64,30.04,10.0,NNE,4.6,-,N/A,,Scattered Clouds,30,2013-03-24 03:50:00
11:53 PM,32.0,21.0,64,30.06,10.0,NNE,4.6,-,N/A,,Partly Cloudy,30,2013-03-24 03:53:00